createdAt,value
2018-08-24T00:00:00.803Z,11.47
2018-08-24T00:02:28.990Z,12.07
2018-08-24T00:04:57.158Z,11.67
2018-08-24T00:07:25.402Z,11.13
2018-08-24T00:09:53.522Z,11.23
2018-08-24T00:12:21.746Z,11.30
2018-08-24T00:14:49.931Z,11.27
2018-08-24T00:17:23.219Z,10.80
2018-08-24T00:19:51.407Z,11.17
2018-08-24T00:22:19.571Z,10.43
2018-08-24T00:24:47.750Z,10.50
2018-08-24T00:27:15.941Z,10.57
2018-08-24T00:29:44.122Z,9.83
2018-08-24T00:32:12.294Z,10.40
2018-08-24T00:34:40.482Z,10.13
2018-08-24T00:37:08.659Z,11.20
2018-08-24T00:39:36.871Z,10.53
2018-08-24T00:42:05.080Z,11.17
2018-08-24T00:44:33.246Z,10.00
2018-08-24T00:47:01.544Z,9.13
2018-08-24T00:49:29.718Z,8.97
2018-08-24T00:51:58.246Z,9.43
2018-08-24T00:54:26.420Z,10.67
2018-08-24T00:56:54.606Z,10.60
2018-08-24T00:59:22.791Z,10.00
2018-08-24T01:01:50.986Z,10.73
2018-08-24T01:04:24.466Z,10.80
2018-08-24T01:06:52.663Z,11.20
2018-08-24T01:09:20.870Z,11.13
2018-08-24T01:11:54.423Z,11.10
2018-08-24T01:14:22.620Z,11.10
2018-08-24T01:16:55.980Z,11.50
2018-08-24T01:19:24.162Z,13.00
2018-08-24T01:21:52.377Z,12.90
2018-08-24T01:24:22.163Z,13.27
2018-08-24T01:26:55.578Z,14.80
2018-08-24T01:29:23.786Z,14.63
2018-08-24T01:31:51.964Z,15.60
2018-08-24T01:34:20.163Z,15.47
2018-08-24T01:36:48.333Z,15.53
2018-08-24T01:39:16.518Z,15.80
2018-08-24T01:41:44.698Z,14.30
2018-08-24T01:44:12.879Z,15.83
2018-08-24T01:46:41.078Z,15.83
2018-08-24T01:49:09.248Z,16.27
2018-08-24T01:51:37.439Z,17.90
2018-08-24T01:54:05.652Z,18.83
2018-08-24T01:56:33.815Z,18.10
2018-08-24T01:59:02.079Z,17.97
2018-08-24T02:01:30.230Z,17.07
2018-08-24T02:03:58.446Z,15.73
2018-08-24T02:06:26.634Z,15.90
2018-08-24T02:08:54.827Z,16.73
2018-08-24T02:11:28.156Z,15.63
2018-08-24T02:14:01.597Z,14.67
2018-08-24T02:16:32.976Z,14.40
2018-08-24T02:19:06.474Z,14.47
2018-08-24T02:21:40.027Z,15.53
2018-08-24T02:24:09.279Z,15.83
2018-08-24T02:26:37.580Z,14.90
2018-08-24T02:29:05.788Z,15.30
2018-08-24T02:31:50.282Z,15.07
2018-08-24T02:34:18.481Z,14.70
2018-08-24T02:36:46.805Z,16.00
2018-08-24T02:39:16.345Z,16.30
2018-08-24T02:41:44.686Z,16.20
2018-08-24T02:44:13.220Z,16.67
2018-08-24T02:46:42.487Z,15.87
2018-08-24T02:49:10.704Z,16.17
2018-08-24T02:51:38.914Z,15.57
2018-08-24T02:54:07.118Z,14.73
2018-08-24T02:56:35.323Z,14.70
2018-08-24T02:59:03.555Z,14.70
2018-08-24T03:01:31.742Z,13.63
2018-08-24T03:03:59.924Z,14.37
2018-08-24T03:06:28.122Z,15.13
2018-08-24T03:08:56.328Z,15.87
2018-08-24T03:11:24.559Z,15.47
2018-08-24T03:13:53.028Z,15.87
2018-08-24T03:16:21.317Z,14.90
2018-08-24T03:18:49.394Z,16.17
2018-08-24T03:21:17.756Z,15.77
2018-08-24T03:23:46.027Z,14.53
2018-08-24T03:26:14.416Z,15.07
2018-08-24T03:28:42.595Z,14.83
2018-08-24T03:31:10.819Z,13.47
2018-08-24T03:33:38.999Z,13.50
2018-08-24T03:36:07.307Z,13.73
2018-08-24T03:38:35.497Z,15.30
2018-08-24T03:41:03.703Z,13.87
2018-08-24T03:43:31.880Z,14.00
2018-08-24T03:46:00.109Z,14.23
2018-08-24T03:48:28.252Z,13.30
2018-08-24T03:50:56.485Z,12.73
2018-08-24T03:53:24.685Z,12.97
2018-08-24T03:55:52.858Z,13.90
2018-08-24T03:58:21.047Z,12.50
2018-08-24T04:00:49.254Z,13.77
2018-08-24T04:03:17.458Z,13.33
2018-08-24T04:05:45.690Z,13.47
2018-08-24T04:08:13.879Z,13.83
2018-08-24T04:10:42.090Z,13.20
2018-08-24T04:13:10.288Z,13.70
2018-08-24T04:15:38.467Z,15.03
2018-08-24T04:18:06.722Z,14.90
2018-08-24T04:20:34.952Z,17.53
2018-08-24T04:23:03.199Z,16.47
2018-08-24T04:25:31.399Z,16.33
2018-08-24T04:27:59.594Z,16.70
2018-08-24T04:30:27.794Z,16.37
2018-08-24T04:32:55.987Z,16.97
2018-08-24T04:35:24.184Z,16.07
2018-08-24T04:37:52.656Z,16.43
2018-08-24T04:40:20.916Z,16.57
2018-08-24T04:42:49.026Z,16.20
2018-08-24T04:45:17.311Z,16.50
2018-08-24T04:47:45.514Z,16.50
2018-08-24T04:50:13.691Z,15.27
2018-08-24T04:52:41.890Z,16.30
2018-08-24T04:55:10.082Z,16.20
2018-08-24T04:57:38.275Z,17.97
2018-08-24T05:00:08.615Z,17.67
2018-08-24T05:02:36.959Z,17.07
2018-08-24T05:05:05.886Z,18.57
2018-08-24T05:07:34.072Z,19.37
2018-08-24T05:10:02.260Z,19.50
2018-08-24T05:12:30.431Z,18.17
2018-08-24T05:14:58.632Z,19.87
2018-08-24T05:17:26.834Z,19.07
2018-08-24T05:19:55.325Z,19.47
2018-08-24T05:22:23.523Z,20.23
2018-08-24T05:24:51.831Z,19.33
2018-08-24T05:27:19.932Z,18.97
2018-08-24T05:29:48.122Z,20.00
2018-08-24T05:32:16.370Z,19.47
2018-08-24T05:34:44.560Z,17.60
2018-08-24T05:37:12.754Z,20.80
2018-08-24T05:39:40.956Z,20.23
2018-08-24T05:42:09.131Z,20.17
2018-08-24T05:44:37.330Z,20.47
2018-08-24T05:47:05.536Z,20.13
2018-08-24T05:49:33.724Z,22.67
2018-08-24T05:52:01.903Z,22.40
2018-08-24T05:54:30.089Z,22.60
2018-08-24T05:56:58.283Z,23.13
2018-08-24T05:59:26.483Z,22.63
2018-08-24T06:01:55.323Z,23.83
2018-08-24T06:04:23.519Z,24.97
2018-08-24T06:06:51.736Z,21.13
2018-08-24T06:09:19.924Z,21.33
2018-08-24T06:11:48.118Z,22.53
2018-08-24T06:14:16.334Z,23.93
2018-08-24T06:16:49.741Z,22.37
2018-08-24T06:19:18.428Z,21.20
2018-08-24T06:21:46.647Z,19.50
2018-08-24T06:24:14.843Z,19.17
2018-08-24T06:26:43.035Z,26.67
2018-08-24T06:29:11.229Z,23.80
2018-08-24T06:31:39.427Z,23.37
2018-08-24T06:34:07.614Z,26.50
2018-08-24T06:36:35.802Z,25.70
2018-08-24T06:39:06.190Z,25.23
2018-08-24T06:41:34.383Z,28.43
2018-08-24T06:44:02.690Z,26.27
2018-08-24T06:46:30.867Z,28.70
2018-08-24T06:48:59.059Z,26.67
2018-08-24T06:51:27.252Z,25.33
2018-08-24T06:53:55.541Z,31.20
2018-08-24T06:56:23.643Z,24.27
2018-08-24T06:58:51.847Z,24.50
2018-08-24T07:01:20.059Z,25.17
2018-08-24T07:03:48.243Z,23.27
2018-08-24T07:06:16.430Z,26.63
2018-08-24T07:08:44.627Z,23.80
2018-08-24T07:11:16.626Z,23.33
2018-08-24T07:13:46.923Z,23.33
2018-08-24T07:16:15.150Z,24.27
2018-08-24T07:18:43.359Z,24.20
2018-08-24T07:21:11.559Z,24.00
2018-08-24T07:23:39.753Z,20.53
2018-08-24T07:26:07.954Z,22.30
2018-08-24T07:28:36.143Z,22.73
2018-08-24T07:31:04.330Z,25.40
2018-08-24T07:33:32.527Z,23.53
2018-08-24T07:36:00.718Z,23.30
2018-08-24T07:38:28.903Z,23.33
2018-08-24T07:40:57.094Z,21.77
2018-08-24T07:43:25.271Z,22.93
2018-08-24T07:45:53.464Z,23.23
2018-08-24T07:48:21.767Z,25.50
2018-08-24T07:50:50.013Z,22.03
2018-08-24T07:53:18.151Z,23.13
2018-08-24T07:55:46.349Z,27.80
2018-08-24T07:58:14.558Z,25.73
2018-08-24T08:00:42.744Z,23.90
2018-08-24T08:03:10.934Z,25.13
2018-08-24T08:05:39.124Z,22.80
2018-08-24T08:08:07.315Z,23.70
2018-08-24T08:10:40.346Z,26.23
2018-08-24T08:13:10.059Z,23.30
2018-08-24T08:15:38.237Z,21.73
2018-08-24T08:18:06.483Z,22.37
2018-08-24T08:20:34.654Z,22.37
2018-08-24T08:23:02.925Z,26.37
2018-08-24T08:25:31.148Z,22.97
2018-08-24T08:27:59.335Z,22.80
2018-08-24T08:30:27.529Z,23.50
2018-08-24T08:32:55.734Z,22.83
2018-08-24T08:35:23.985Z,23.80
2018-08-24T08:37:52.182Z,22.30
2018-08-24T08:40:20.379Z,23.03
2018-08-24T08:42:48.571Z,23.20
2018-08-24T08:45:16.801Z,23.77
2018-08-24T08:47:44.970Z,21.60
2018-08-24T08:50:13.222Z,22.70
2018-08-24T08:52:41.427Z,22.60
2018-08-24T08:55:09.613Z,23.00
2018-08-24T08:57:37.816Z,21.47
2018-08-24T09:00:06.288Z,20.57
2018-08-24T09:02:34.469Z,21.13
2018-08-24T09:05:02.699Z,21.30
2018-08-24T09:07:30.890Z,18.83
2018-08-24T09:09:59.090Z,20.43
2018-08-24T09:12:27.283Z,18.83
2018-08-24T09:14:55.495Z,18.30
2018-08-24T09:17:28.907Z,22.83
2018-08-24T09:20:02.403Z,15.90
2018-08-24T09:22:35.850Z,16.80
2018-08-24T09:25:09.283Z,14.60
2018-08-24T09:28:41.304Z,14.03
2018-08-24T09:31:16.455Z,13.27
2018-08-24T09:33:44.672Z,13.80
2018-08-24T09:36:18.870Z,11.10
2018-08-24T09:38:47.407Z,10.93
2018-08-24T09:41:15.591Z,11.40
2018-08-24T09:43:49.183Z,9.60
2018-08-24T09:46:17.371Z,10.63
2018-08-24T09:48:50.751Z,12.50
2018-08-24T09:51:24.302Z,10.77
2018-08-24T09:53:57.815Z,11.67
2018-08-24T09:56:27.071Z,11.30
2018-08-24T09:58:55.244Z,10.63
2018-08-24T10:01:28.754Z,11.57
2018-08-24T10:04:02.286Z,11.63
2018-08-24T10:06:35.887Z,15.50
2018-08-24T10:09:05.963Z,8.50
2018-08-24T10:11:34.135Z,8.60
2018-08-24T10:14:02.327Z,8.40
2018-08-24T10:16:30.528Z,8.90
2018-08-24T10:18:58.751Z,9.90
2018-08-24T10:21:26.938Z,9.10
2018-08-24T10:23:55.116Z,9.27
2018-08-24T10:26:23.275Z,8.43
2018-08-24T10:28:51.487Z,8.40
2018-08-24T10:31:19.668Z,8.60
2018-08-24T10:33:47.876Z,8.20
2018-08-24T10:36:16.021Z,9.10
2018-08-24T10:38:44.186Z,8.20
2018-08-24T10:41:12.431Z,8.70
2018-08-24T10:43:40.523Z,8.20
2018-08-24T10:46:08.694Z,8.50
2018-08-24T10:48:36.859Z,11.23
2018-08-24T10:51:05.068Z,10.80
2018-08-24T10:53:33.235Z,9.83
2018-08-24T10:56:01.444Z,9.57
2018-08-24T10:58:29.611Z,9.00
2018-08-24T11:00:57.795Z,8.70
2018-08-24T11:03:25.992Z,8.90
2018-08-24T11:05:54.200Z,9.23
2018-08-24T11:08:22.374Z,9.00
2018-08-24T11:10:50.578Z,9.40
2018-08-24T11:13:18.755Z,9.57
2018-08-24T11:15:49.622Z,8.07
2018-08-24T11:18:17.900Z,9.67
2018-08-24T11:20:46.098Z,9.33
2018-08-24T11:23:14.288Z,10.80
2018-08-24T11:25:42.479Z,10.97
2018-08-24T11:28:10.716Z,11.90
2018-08-24T11:30:38.915Z,10.10
2018-08-24T11:33:07.104Z,8.93
2018-08-24T11:35:35.279Z,9.03
2018-08-24T11:38:03.454Z,9.60
2018-08-24T11:40:31.646Z,8.87
2018-08-24T11:42:59.819Z,8.17
2018-08-24T11:45:28.022Z,8.50
2018-08-24T11:47:56.278Z,8.47
2018-08-24T11:50:25.231Z,8.40
2018-08-24T11:52:53.402Z,7.80
2018-08-24T11:55:21.603Z,7.70
2018-08-24T11:57:49.771Z,7.47
2018-08-24T12:00:17.946Z,7.70
2018-08-24T12:02:46.177Z,6.73
2018-08-24T12:05:14.320Z,8.23
2018-08-24T12:07:42.512Z,8.40
2018-08-24T12:10:10.359Z,9.03
2018-08-24T12:12:38.619Z,7.83
2018-08-24T12:15:06.723Z,8.30
2018-08-24T12:17:36.660Z,8.10
2018-08-24T12:20:05.480Z,10.97
2018-08-24T12:22:33.653Z,8.07
2018-08-24T12:25:01.839Z,10.00
2018-08-24T12:27:30.023Z,7.30
2018-08-24T12:29:58.187Z,8.00
2018-08-24T12:32:26.371Z,9.67
2018-08-24T12:34:54.653Z,9.27
2018-08-24T12:37:22.735Z,8.53
2018-08-24T12:39:50.902Z,8.70
2018-08-24T12:42:19.098Z,8.03
2018-08-24T12:44:47.289Z,8.70
2018-08-24T12:47:15.470Z,7.90
2018-08-24T12:49:43.727Z,8.20
2018-08-24T12:52:11.963Z,9.30
2018-08-24T12:54:40.106Z,9.03
2018-08-24T12:57:08.287Z,10.57
2018-08-24T12:59:36.489Z,8.60
2018-08-24T13:02:04.675Z,9.50
2018-08-24T13:04:32.866Z,8.77
2018-08-24T13:07:01.049Z,8.17
2018-08-24T13:09:29.221Z,8.23
2018-08-24T13:11:57.395Z,7.73
2018-08-24T13:14:25.575Z,8.57
2018-08-24T13:16:53.751Z,9.47
2018-08-24T13:19:21.947Z,8.13
2018-08-24T13:21:50.112Z,8.37
2018-08-24T13:24:18.294Z,7.73
2018-08-24T13:26:46.491Z,7.73
2018-08-24T13:29:14.673Z,8.87
2018-08-24T13:31:42.867Z,8.30
2018-08-24T13:34:11.034Z,7.77
2018-08-24T13:36:39.222Z,8.33
2018-08-24T13:39:08.184Z,9.27
2018-08-24T13:41:36.458Z,7.93
2018-08-24T13:44:04.654Z,7.83
2018-08-24T13:46:32.863Z,7.43
2018-08-24T13:49:01.087Z,8.53
2018-08-24T13:51:29.276Z,8.90
2018-08-24T13:53:57.456Z,8.40
2018-08-24T13:56:25.639Z,8.07
2018-08-24T13:58:53.819Z,7.37
2018-08-24T14:01:22.007Z,7.40
2018-08-24T14:03:50.192Z,7.30
2018-08-24T14:06:18.359Z,7.03
2018-08-24T14:08:46.539Z,6.97
2018-08-24T14:11:14.708Z,7.43
2018-08-24T14:13:42.880Z,6.83
2018-08-24T14:16:11.058Z,7.90
2018-08-24T14:18:39.235Z,7.87
2018-08-24T14:21:07.410Z,7.07
2018-08-24T14:23:35.592Z,7.67
2018-08-24T14:26:03.771Z,6.80
2018-08-24T14:28:31.938Z,8.60
2018-08-24T14:31:00.110Z,9.43
2018-08-24T14:33:28.295Z,8.37
2018-08-24T14:35:56.456Z,7.57
2018-08-24T14:38:24.708Z,7.50
2018-08-24T14:40:52.815Z,7.90
2018-08-24T14:43:21.026Z,8.70
2018-08-24T14:45:49.219Z,9.00
2018-08-24T14:48:17.462Z,7.93
2018-08-24T14:50:45.598Z,7.47
2018-08-24T14:53:13.793Z,7.70
2018-08-24T14:55:42.008Z,7.80
2018-08-24T14:58:10.220Z,7.83
2018-08-24T15:00:38.383Z,7.43
2018-08-24T15:03:06.595Z,8.30
2018-08-24T15:05:34.777Z,7.93
2018-08-24T15:08:02.939Z,8.00
2018-08-24T15:10:31.115Z,8.60
2018-08-24T15:12:59.286Z,7.57
2018-08-24T15:15:27.451Z,8.57
2018-08-24T15:17:55.615Z,7.43
2018-08-24T15:20:23.787Z,8.47
2018-08-24T15:22:52.008Z,7.83
2018-08-24T15:25:20.135Z,7.43
2018-08-24T15:27:48.303Z,8.10
2018-08-24T15:30:16.475Z,9.53
2018-08-24T15:32:44.639Z,7.03
2018-08-24T15:35:12.907Z,8.33
2018-08-24T15:37:40.992Z,7.80
2018-08-24T15:40:09.163Z,8.10
2018-08-24T15:42:37.343Z,7.47
2018-08-24T15:45:05.623Z,7.63
2018-08-24T15:47:33.810Z,8.87
2018-08-24T15:50:01.987Z,14.50
2018-08-24T15:52:30.184Z,12.63
2018-08-24T15:54:58.348Z,10.23
2018-08-24T15:57:26.531Z,10.13
2018-08-24T15:59:54.696Z,14.30
2018-08-24T16:02:22.903Z,20.33
2018-08-24T16:04:51.075Z,20.83
2018-08-24T16:07:19.257Z,19.27
2018-08-24T16:09:47.430Z,12.90
2018-08-24T16:12:15.674Z,20.90
2018-08-24T16:14:43.787Z,13.13
2018-08-24T16:17:12.354Z,10.73
2018-08-24T16:19:40.519Z,9.00
2018-08-24T16:22:08.799Z,10.40
2018-08-24T16:24:36.883Z,8.33
2018-08-24T16:27:07.675Z,11.17
2018-08-24T16:29:35.854Z,9.20
2018-08-24T16:32:04.032Z,9.83
2018-08-24T16:34:32.199Z,9.53
2018-08-24T16:37:00.405Z,8.67
2018-08-24T16:39:28.547Z,9.13
2018-08-24T16:41:56.716Z,7.60
2018-08-24T16:44:24.894Z,9.77
2018-08-24T16:46:53.067Z,8.60
2018-08-24T16:49:21.242Z,9.90
2018-08-24T16:51:49.407Z,7.30
2018-08-24T16:54:17.572Z,7.83
2018-08-24T16:56:45.749Z,8.37
2018-08-24T16:59:13.932Z,7.10
2018-08-24T17:01:42.120Z,9.13
2018-08-24T17:04:10.302Z,7.53
2018-08-24T17:06:38.464Z,7.20
2018-08-24T17:09:09.123Z,7.77
2018-08-24T17:11:37.315Z,8.10
2018-08-24T17:14:05.620Z,9.17
2018-08-24T17:16:33.826Z,8.90
2018-08-24T17:19:02.029Z,7.13
2018-08-24T17:21:30.200Z,8.20
2018-08-24T17:23:58.458Z,8.47
2018-08-24T17:26:26.630Z,7.63
2018-08-24T17:28:54.852Z,9.40
2018-08-24T17:31:23.023Z,8.40
2018-08-24T17:33:51.190Z,9.27
2018-08-24T17:36:19.376Z,10.23
2018-08-24T17:38:47.568Z,9.30
2018-08-24T17:41:15.747Z,9.20
2018-08-24T17:43:44.228Z,8.73
2018-08-24T17:46:12.410Z,8.13
2018-08-24T17:48:40.575Z,7.70
2018-08-24T17:51:08.751Z,7.90
2018-08-24T17:53:36.915Z,7.70
2018-08-24T17:56:05.108Z,9.17
2018-08-24T17:58:33.294Z,7.53
2018-08-24T18:01:01.559Z,8.40
2018-08-24T18:03:29.761Z,6.80
2018-08-24T18:05:57.939Z,8.03
2018-08-24T18:08:26.115Z,9.17
2018-08-24T18:10:54.298Z,7.70
2018-08-24T18:13:22.554Z,9.27
2018-08-24T18:15:50.722Z,8.73
2018-08-24T18:18:18.898Z,8.57
2018-08-24T18:20:47.265Z,8.73
2018-08-24T18:23:15.445Z,8.57
2018-08-24T18:25:43.638Z,8.30
2018-08-24T18:28:11.823Z,8.23
2018-08-24T18:30:40.002Z,7.63
2018-08-24T18:33:08.182Z,7.90
2018-08-24T18:35:36.359Z,8.43
2018-08-24T18:38:04.555Z,7.43
2018-08-24T18:40:32.751Z,8.10
2018-08-24T18:43:00.932Z,7.40
2018-08-24T18:45:29.110Z,8.03
2018-08-24T18:47:57.298Z,8.20
2018-08-24T18:50:25.475Z,7.97
2018-08-24T18:52:53.646Z,7.00
2018-08-24T18:55:21.816Z,7.87
2018-08-24T18:57:50.035Z,8.20
2018-08-24T19:00:18.379Z,7.80
2018-08-24T19:02:46.567Z,8.63
2018-08-24T19:05:14.748Z,7.53
2018-08-24T19:07:42.915Z,8.03
2018-08-24T19:10:11.089Z,9.40
2018-08-24T19:12:39.260Z,7.47
2018-08-24T19:15:07.508Z,7.77
2018-08-24T19:18:39.318Z,8.10
2018-08-24T19:21:12.720Z,7.77
2018-08-24T19:23:40.888Z,7.67
2018-08-24T19:26:09.079Z,8.50
2018-08-24T19:28:42.411Z,7.97
2018-08-24T19:31:10.591Z,8.20
2018-08-24T19:33:38.783Z,7.33
2018-08-24T19:36:07.075Z,6.97
2018-08-24T19:38:35.247Z,7.60
2018-08-24T19:41:08.762Z,9.77
2018-08-24T19:43:36.938Z,8.00
2018-08-24T19:46:05.138Z,8.27
2018-08-24T19:48:38.507Z,7.67
2018-08-24T19:51:06.715Z,8.43
2018-08-24T19:53:34.887Z,7.87
2018-08-24T19:56:03.107Z,6.83
2018-08-24T19:58:36.658Z,7.27
2018-08-24T20:01:04.877Z,8.03
2018-08-24T20:03:33.062Z,7.77
2018-08-24T20:06:06.612Z,7.87
2018-08-24T20:08:40.123Z,8.63
2018-08-24T20:11:08.347Z,7.60
2018-08-24T20:13:36.531Z,7.60
2018-08-24T20:16:10.068Z,7.87
2018-08-24T20:18:38.250Z,9.10
2018-08-24T20:21:06.427Z,8.00
2018-08-24T20:23:34.612Z,8.13
2018-08-24T20:26:02.807Z,8.87
2018-08-24T20:28:30.987Z,8.20
2018-08-24T20:30:59.227Z,8.43
2018-08-24T20:33:27.594Z,7.60
2018-08-24T20:35:55.780Z,7.47
2018-08-24T20:38:24.150Z,8.07
2018-08-24T20:40:52.348Z,7.87
2018-08-24T20:43:20.547Z,8.00
2018-08-24T20:45:48.729Z,7.57
2018-08-24T20:48:16.903Z,7.50
2018-08-24T20:50:45.096Z,8.17
2018-08-24T20:53:13.274Z,10.17
2018-08-24T20:55:41.531Z,10.47
2018-08-24T20:58:09.627Z,8.03
2018-08-24T21:00:37.803Z,8.50
2018-08-24T21:03:06.133Z,8.50
2018-08-24T21:05:34.316Z,8.90
2018-08-24T21:08:02.518Z,7.70
2018-08-24T21:10:30.752Z,7.93
2018-08-24T21:12:58.901Z,8.30
2018-08-24T21:15:27.063Z,7.97
2018-08-24T21:17:55.272Z,8.13
2018-08-24T21:20:23.474Z,8.90
2018-08-24T21:22:51.671Z,8.17
2018-08-24T21:25:19.835Z,7.40
2018-08-24T21:27:48.019Z,7.63
2018-08-24T21:30:16.275Z,7.20
2018-08-24T21:32:44.379Z,8.10
2018-08-24T21:35:12.595Z,7.80
2018-08-24T21:37:40.795Z,8.20
2018-08-24T21:40:08.968Z,7.10
2018-08-24T21:42:37.150Z,7.60
2018-08-24T21:45:05.747Z,8.33
2018-08-24T21:47:33.927Z,8.20
2018-08-24T21:50:02.127Z,8.77
2018-08-24T21:52:30.287Z,8.37
2018-08-24T21:54:58.473Z,8.20
2018-08-24T21:57:26.665Z,8.37
2018-08-24T21:59:54.835Z,9.27
2018-08-24T22:02:23.021Z,9.20
2018-08-24T22:04:51.198Z,9.83
2018-08-24T22:07:19.379Z,9.03
2018-08-24T22:09:47.552Z,8.70
2018-08-24T22:12:15.738Z,9.23
2018-08-24T22:14:43.935Z,8.50
2018-08-24T22:17:12.107Z,8.27
2018-08-24T22:19:40.304Z,8.40
2018-08-24T22:22:08.477Z,8.63
2018-08-24T22:24:36.651Z,7.97
2018-08-24T22:27:05.060Z,8.90
2018-08-24T22:29:33.259Z,8.47
2018-08-24T22:32:01.459Z,8.90
2018-08-24T22:34:29.656Z,9.00
2018-08-24T22:36:57.838Z,9.30
2018-08-24T22:39:26.028Z,8.63
2018-08-24T22:41:54.232Z,8.80
2018-08-24T22:44:22.423Z,8.73
2018-08-24T22:46:50.595Z,8.60
2018-08-24T22:49:18.785Z,8.70
2018-08-24T22:51:46.978Z,8.93
2018-08-24T22:54:15.176Z,9.70
2018-08-24T22:56:43.389Z,9.40
2018-08-24T22:59:11.571Z,8.57
2018-08-24T23:01:39.755Z,8.60
2018-08-24T23:04:07.965Z,9.40
2018-08-24T23:06:36.190Z,8.60
2018-08-24T23:09:06.845Z,8.57
2018-08-24T23:11:35.012Z,9.10
2018-08-24T23:14:03.199Z,9.17
2018-08-24T23:16:31.374Z,8.83
2018-08-24T23:18:59.575Z,9.43
2018-08-24T23:21:27.740Z,8.47
2018-08-24T23:23:55.923Z,8.30
2018-08-24T23:26:24.102Z,9.00
2018-08-24T23:28:52.300Z,8.47
2018-08-24T23:31:20.490Z,9.10
2018-08-24T23:33:48.679Z,8.80
2018-08-24T23:36:16.855Z,8.47
2018-08-24T23:38:45.043Z,9.30
2018-08-24T23:41:13.231Z,7.73
2018-08-24T23:43:41.405Z,8.50
2018-08-24T23:46:09.634Z,8.03
2018-08-24T23:48:37.808Z,8.47
2018-08-24T23:51:05.985Z,8.57
2018-08-24T23:53:34.151Z,8.30
2018-08-24T23:56:02.332Z,8.77
2018-08-24T23:58:30.519Z,8.80
